createdAt,value
2023-04-06T00:02:01.587Z,14.25
2023-04-06T00:04:47.181Z,12.68
2023-04-06T00:07:34.564Z,13.75
2023-04-06T00:10:20.197Z,14.55
2023-04-06T00:13:07.590Z,15.18
2023-04-06T00:15:52.810Z,13.15
2023-04-06T00:18:38.479Z,14.48
2023-04-06T00:21:24.233Z,13.55
2023-04-06T00:24:09.688Z,14.00
2023-04-06T00:26:56.070Z,13.02
2023-04-06T00:29:42.539Z,12.15
2023-04-06T00:32:28.723Z,15.23
2023-04-06T00:35:14.178Z,15.38
2023-04-06T00:37:59.962Z,13.18
2023-04-06T00:40:45.897Z,14.13
2023-04-06T00:43:31.171Z,12.48
2023-04-06T00:46:16.915Z,12.18
2023-04-06T00:49:02.993Z,13.27
2023-04-06T00:51:48.503Z,12.40
2023-04-06T00:54:35.846Z,13.30
2023-04-06T00:57:22.261Z,11.65
2023-04-06T01:00:14.412Z,12.13
2023-04-06T01:03:02.162Z,11.85
2023-04-06T01:05:59.099Z,12.40
2023-04-06T01:08:50.281Z,13.82
2023-04-06T01:11:39.396Z,14.52
2023-04-06T01:14:29.514Z,12.15
2023-04-06T01:17:18.500Z,13.13
2023-04-06T01:20:05.573Z,13.55
2023-04-06T01:22:51.553Z,12.55
2023-04-06T01:25:38.019Z,11.65
2023-04-06T01:28:26.517Z,11.88
2023-04-06T01:31:24.833Z,12.95
2023-04-06T01:34:14.126Z,12.95
2023-04-06T01:37:00.815Z,11.73
2023-04-06T01:39:49.145Z,11.35
2023-04-06T01:42:44.301Z,12.63
2023-04-06T01:45:33.332Z,13.20
2023-04-06T01:48:28.022Z,10.40
2023-04-06T01:51:14.218Z,12.23
2023-04-06T01:57:05.958Z,11.20
2023-04-06T02:00:00.837Z,11.48
2023-04-06T02:02:59.152Z,10.50
2023-04-06T02:05:47.774Z,13.45
2023-04-06T02:08:40.922Z,12.85
2023-04-06T02:11:26.407Z,10.45
2023-04-06T02:14:14.529Z,10.57
2023-04-06T02:17:05.197Z,11.98
2023-04-06T02:19:51.180Z,11.80
2023-04-06T02:22:36.967Z,9.65
2023-04-06T02:25:22.906Z,12.07
2023-04-06T02:28:08.299Z,13.65
2023-04-06T02:30:54.163Z,12.60
2023-04-06T02:33:44.594Z,10.65
2023-04-06T02:36:31.213Z,9.50
2023-04-06T02:39:17.173Z,13.57
2023-04-06T02:42:02.593Z,11.57
2023-04-06T02:44:48.748Z,9.65
2023-04-06T02:47:34.909Z,12.98
2023-04-06T02:50:20.377Z,11.10
2023-04-06T02:53:19.926Z,11.45
2023-04-06T02:56:06.520Z,11.20
2023-04-06T02:59:05.698Z,12.55
2023-04-06T03:01:52.906Z,11.30
2023-04-06T03:04:38.635Z,9.57
2023-04-06T03:07:29.792Z,11.32
2023-04-06T03:10:14.969Z,9.00
2023-04-06T03:13:00.957Z,11.98
2023-04-06T03:15:59.269Z,9.93
2023-04-06T03:18:46.085Z,11.52
2023-04-06T03:21:32.974Z,10.02
2023-04-06T03:24:19.056Z,11.00
2023-04-06T03:27:04.861Z,10.05
2023-04-06T03:29:50.798Z,11.05
2023-04-06T03:32:42.800Z,11.60
2023-04-06T03:35:28.205Z,12.18
2023-04-06T03:38:13.865Z,10.00
2023-04-06T03:40:59.254Z,10.48
2023-04-06T03:43:46.730Z,9.32
2023-04-06T03:46:32.528Z,11.73
2023-04-06T03:49:18.703Z,8.95
2023-04-06T03:52:08.131Z,8.00
2023-04-06T03:54:53.825Z,9.48
2023-04-06T03:57:39.162Z,11.48
2023-04-06T04:00:24.839Z,10.70
2023-04-06T04:03:10.284Z,10.55
2023-04-06T04:05:58.913Z,9.02
2023-04-06T04:08:45.446Z,10.65
2023-04-06T04:11:31.059Z,12.00
2023-04-06T04:14:18.352Z,11.02
2023-04-06T04:17:04.563Z,9.95
2023-04-06T04:19:50.046Z,9.32
2023-04-06T04:22:35.570Z,9.85
2023-04-06T04:25:21.884Z,10.85
2023-04-06T04:28:08.764Z,9.88
2023-04-06T04:30:55.260Z,11.43
2023-04-06T04:33:41.751Z,11.63
2023-04-06T04:36:32.785Z,11.00
2023-04-06T04:39:21.237Z,11.10
2023-04-06T04:42:15.327Z,10.60
2023-04-06T04:45:06.270Z,9.98
2023-04-06T04:47:56.328Z,9.48
2023-04-06T04:50:45.126Z,11.25
2023-04-06T04:53:31.355Z,15.35
2023-04-06T04:56:22.512Z,14.52
2023-04-06T04:59:13.963Z,12.48
2023-04-06T05:02:05.801Z,11.32
2023-04-06T05:05:01.506Z,12.27
2023-04-06T05:07:48.356Z,13.27
2023-04-06T05:10:45.655Z,15.02
2023-04-06T05:13:31.994Z,13.10
2023-04-06T05:16:19.465Z,12.90
2023-04-06T05:19:05.539Z,12.02
2023-04-06T05:21:58.749Z,13.73
2023-04-06T05:24:45.038Z,15.98
2023-04-06T05:27:30.522Z,16.30
2023-04-06T05:30:17.721Z,16.50
2023-04-06T05:33:05.457Z,17.27
2023-04-06T05:36:07.883Z,15.93
2023-04-06T05:38:58.898Z,14.00
2023-04-06T05:41:54.025Z,20.30
2023-04-06T05:45:05.512Z,18.15
2023-04-06T05:47:52.257Z,17.98
2023-04-06T05:50:51.546Z,15.90
2023-04-06T05:53:40.781Z,15.82
2023-04-06T05:56:26.524Z,15.65
2023-04-06T05:59:12.842Z,16.95
2023-04-06T06:02:02.059Z,18.92
2023-04-06T06:04:50.875Z,17.80
2023-04-06T06:07:37.561Z,16.27
2023-04-06T06:10:23.660Z,15.85
2023-04-06T06:13:09.078Z,16.75
2023-04-06T06:15:54.999Z,14.90
2023-04-06T06:18:41.810Z,15.52
2023-04-06T06:21:27.525Z,14.50
2023-04-06T06:24:12.951Z,17.98
2023-04-06T06:26:58.498Z,16.75
2023-04-06T06:29:46.492Z,16.15
2023-04-06T06:32:32.971Z,16.05
2023-04-06T06:35:19.212Z,16.45
2023-04-06T06:38:06.749Z,14.98
2023-04-06T06:40:53.078Z,13.77
2023-04-06T06:43:39.438Z,14.77
2023-04-06T06:46:30.548Z,12.60
2023-04-06T06:49:15.932Z,14.45
2023-04-06T06:52:01.370Z,16.05
2023-04-06T06:54:46.764Z,15.65
2023-04-06T06:57:32.571Z,16.05
2023-04-06T07:00:18.512Z,19.58
2023-04-06T07:03:06.125Z,17.33
2023-04-06T07:05:55.397Z,18.45
2023-04-06T07:08:42.343Z,16.20
2023-04-06T07:11:27.869Z,16.25
2023-04-06T07:14:13.333Z,21.42
2023-04-06T07:16:58.829Z,18.27
2023-04-06T07:19:44.318Z,16.02
2023-04-06T07:22:29.865Z,17.98
2023-04-06T07:25:15.648Z,15.63
2023-04-06T07:28:00.890Z,17.33
2023-04-06T07:30:46.474Z,16.92
2023-04-06T07:33:31.959Z,17.65
2023-04-06T07:36:17.980Z,16.85
2023-04-06T07:39:03.617Z,17.23
2023-04-06T07:41:49.388Z,16.00
2023-04-06T07:44:35.604Z,19.70
2023-04-06T07:47:20.751Z,20.73
2023-04-06T07:50:06.953Z,19.85
2023-04-06T07:52:52.374Z,18.60
2023-04-06T07:55:38.337Z,24.65
2023-04-06T07:58:23.676Z,24.30
2023-04-06T08:01:09.072Z,22.60
2023-04-06T08:03:56.710Z,22.77
2023-04-06T08:06:42.294Z,20.63
2023-04-06T08:09:28.131Z,21.10
2023-04-06T08:12:13.593Z,18.90
2023-04-06T08:14:59.250Z,19.67
2023-04-06T08:17:44.454Z,20.45
2023-04-06T08:20:29.875Z,25.00
2023-04-06T08:23:15.246Z,21.27
2023-04-06T08:26:00.805Z,21.95
2023-04-06T08:28:47.101Z,28.17
2023-04-06T08:31:32.600Z,25.33
2023-04-06T08:34:17.949Z,26.95
2023-04-06T08:37:03.612Z,25.80
2023-04-06T08:39:48.887Z,20.67
2023-04-06T08:42:37.045Z,21.08
2023-04-06T08:45:23.480Z,21.77
2023-04-06T08:48:10.413Z,21.25
2023-04-06T08:50:56.063Z,23.50
2023-04-06T08:53:42.489Z,18.73
2023-04-06T08:56:29.239Z,18.20
2023-04-06T08:59:15.380Z,19.05
2023-04-06T09:02:04.359Z,16.02
2023-04-06T09:04:54.613Z,15.30
2023-04-06T09:07:40.117Z,17.67
2023-04-06T09:10:26.814Z,15.82
2023-04-06T09:13:12.322Z,16.83
2023-04-06T09:16:05.439Z,18.30
2023-04-06T09:18:51.126Z,18.63
2023-04-06T09:21:37.100Z,16.83
2023-04-06T09:24:27.063Z,16.20
2023-04-06T09:27:12.968Z,14.98
2023-04-06T09:30:15.558Z,15.35
2023-04-06T09:33:01.130Z,18.02
2023-04-06T09:35:51.169Z,17.88
2023-04-06T09:38:51.616Z,19.40
2023-04-06T09:41:37.094Z,21.70
2023-04-06T09:44:24.974Z,17.42
2023-04-06T09:47:10.934Z,19.88
2023-04-06T09:49:58.837Z,17.83
2023-04-06T09:52:52.106Z,19.90
2023-04-06T09:55:43.891Z,23.35
2023-04-06T09:58:33.430Z,22.92
2023-04-06T10:01:21.805Z,23.67
2023-04-06T10:04:25.821Z,25.10
2023-04-06T10:07:16.586Z,26.38
2023-04-06T10:10:04.038Z,23.33
2023-04-06T10:12:50.527Z,27.30
2023-04-06T10:15:36.156Z,22.70
2023-04-06T10:18:22.256Z,21.70
2023-04-06T10:21:13.764Z,23.38
2023-04-06T10:24:02.172Z,20.57
2023-04-06T10:27:04.584Z,23.65
2023-04-06T10:29:52.025Z,18.13
2023-04-06T10:32:38.981Z,20.02
2023-04-06T10:35:25.001Z,21.83
2023-04-06T10:38:10.579Z,19.60
2023-04-06T10:41:11.902Z,20.20
2023-04-06T10:43:58.282Z,16.58
2023-04-06T10:47:03.549Z,17.35
2023-04-06T10:49:49.156Z,17.15
2023-04-06T10:52:34.398Z,19.08
2023-04-06T10:55:21.507Z,15.90
2023-04-06T10:58:09.826Z,15.88
2023-04-06T11:00:56.699Z,17.40
2023-04-06T11:03:53.423Z,17.98
2023-04-06T11:06:39.476Z,14.38
2023-04-06T11:09:30.371Z,17.33
2023-04-06T11:12:27.258Z,17.10
2023-04-06T11:15:12.411Z,18.27
2023-04-06T11:17:57.959Z,14.82
2023-04-06T11:20:49.126Z,17.70
2023-04-06T11:23:34.361Z,14.73
2023-04-06T11:26:19.800Z,13.80
2023-04-06T11:29:06.055Z,11.93
2023-04-06T11:31:59.350Z,11.77
2023-04-06T11:34:48.570Z,11.98
2023-04-06T11:37:33.929Z,11.98
2023-04-06T11:40:23.634Z,10.93
2023-04-06T11:43:12.290Z,9.93
2023-04-06T11:46:06.168Z,10.77
2023-04-06T11:48:51.280Z,10.23
2023-04-06T11:51:38.122Z,9.10
2023-04-06T11:54:38.107Z,12.98
2023-04-06T11:57:26.201Z,9.20
2023-04-06T12:00:12.256Z,10.85
2023-04-06T12:02:57.476Z,8.45
2023-04-06T12:05:42.660Z,10.00
2023-04-06T12:08:28.119Z,7.63
2023-04-06T12:11:13.772Z,10.02
2023-04-06T12:14:00.317Z,10.80
2023-04-06T12:16:45.722Z,8.10
2023-04-06T12:19:31.245Z,9.25
2023-04-06T12:22:18.889Z,7.88
2023-04-06T12:25:04.675Z,7.93
2023-04-06T12:27:50.040Z,9.30
2023-04-06T12:30:38.507Z,9.02
2023-04-06T12:33:23.882Z,9.75
2023-04-06T12:36:16.714Z,10.75
2023-04-06T12:39:02.143Z,9.63
2023-04-06T12:41:47.774Z,8.45
2023-04-06T12:44:33.269Z,9.75
2023-04-06T12:47:19.034Z,9.40
2023-04-06T12:50:06.899Z,10.35
2023-04-06T12:52:52.514Z,10.57
2023-04-06T12:55:38.070Z,11.43
2023-04-06T12:58:24.929Z,8.63
2023-04-06T13:01:10.594Z,12.35
2023-04-06T13:03:58.113Z,10.30
2023-04-06T13:06:43.347Z,10.60
2023-04-06T13:09:28.753Z,9.93
2023-04-06T13:12:14.242Z,10.77
2023-04-06T13:14:59.613Z,11.05
2023-04-06T13:17:45.237Z,10.45
2023-04-06T13:20:30.990Z,10.02
2023-04-06T13:23:16.926Z,11.25
2023-04-06T13:26:04.362Z,10.52
2023-04-06T13:28:49.810Z,11.60
2023-04-06T13:31:35.295Z,9.93
2023-04-06T13:34:20.755Z,11.32
2023-04-06T13:37:06.332Z,11.68
2023-04-06T13:39:51.635Z,13.13
2023-04-06T13:42:36.816Z,12.15
2023-04-06T13:45:22.271Z,14.55
2023-04-06T13:48:08.170Z,13.90
2023-04-06T13:50:53.699Z,14.43
2023-04-06T13:53:41.508Z,14.10
2023-04-06T13:56:27.244Z,15.35
2023-04-06T13:59:12.491Z,12.88
2023-04-06T14:01:58.696Z,13.75
2023-04-06T14:04:44.334Z,13.88
2023-04-06T14:07:29.937Z,14.90
2023-04-06T14:10:15.743Z,14.18
2023-04-06T14:13:01.182Z,14.02
2023-04-06T14:15:46.535Z,13.98
2023-04-06T14:18:32.057Z,14.52
2023-04-06T14:21:17.356Z,14.82
2023-04-06T14:24:02.781Z,15.25
2023-04-06T14:26:48.499Z,14.65
2023-04-06T14:29:33.545Z,14.07
2023-04-06T14:32:18.897Z,15.38
2023-04-06T14:35:07.289Z,18.70
2023-04-06T14:37:53.268Z,18.27
2023-04-06T14:40:38.660Z,16.45
2023-04-06T14:43:23.985Z,16.02
2023-04-06T14:46:09.620Z,17.70
2023-04-06T14:49:01.544Z,15.07
2023-04-06T14:51:46.736Z,16.08
2023-04-06T14:54:31.905Z,14.27
2023-04-06T14:57:17.156Z,16.08
2023-04-06T15:00:03.707Z,15.10
2023-04-06T15:02:49.221Z,14.90
2023-04-06T15:05:37.715Z,15.63
2023-04-06T15:08:24.265Z,15.02
2023-04-06T15:11:10.999Z,15.30
2023-04-06T15:13:56.077Z,14.73
2023-04-06T15:16:41.499Z,14.90
2023-04-06T15:19:27.854Z,15.65
2023-04-06T15:22:13.249Z,14.63
2023-04-06T15:24:58.718Z,13.27
2023-04-06T15:27:44.083Z,14.73
2023-04-06T15:30:29.322Z,13.18
2023-04-06T15:33:14.593Z,13.18
2023-04-06T15:36:00.318Z,13.27
2023-04-06T15:38:45.728Z,14.82
2023-04-06T15:41:31.598Z,13.15
2023-04-06T15:44:17.058Z,11.70
2023-04-06T15:47:02.411Z,11.43
2023-04-06T15:49:48.048Z,12.60
2023-04-06T15:52:34.014Z,11.45
2023-04-06T15:55:19.200Z,11.65
2023-04-06T15:58:04.812Z,10.73
2023-04-06T16:00:49.912Z,11.13
2023-04-06T16:03:35.522Z,11.95
2023-04-06T16:06:21.392Z,10.50
2023-04-06T16:09:06.981Z,11.10
2023-04-06T16:11:52.290Z,9.45
2023-04-06T16:14:37.696Z,10.75
2023-04-06T16:17:23.271Z,10.43
2023-04-06T16:20:09.380Z,10.93
2023-04-06T16:22:54.548Z,11.02
2023-04-06T16:25:40.365Z,10.75
2023-04-06T16:28:25.578Z,11.38
2023-04-06T16:31:22.618Z,10.55
2023-04-06T16:34:08.306Z,10.93
2023-04-06T16:36:53.820Z,11.10
2023-04-06T16:39:38.916Z,10.43
2023-04-06T16:42:24.602Z,10.35
2023-04-06T16:45:11.776Z,11.32
2023-04-06T16:47:57.182Z,12.57
2023-04-06T16:50:42.504Z,10.77
2023-04-06T16:53:27.957Z,10.65
2023-04-06T16:56:13.667Z,11.95
2023-04-06T16:58:59.323Z,10.98
2023-04-06T17:01:44.470Z,10.52
2023-04-06T17:04:30.259Z,10.43
2023-04-06T17:07:15.895Z,10.32
2023-04-06T17:10:02.201Z,11.90
2023-04-06T17:12:49.334Z,11.30
2023-04-06T17:15:35.063Z,10.90
2023-04-06T17:18:20.711Z,10.40
2023-04-06T17:21:14.425Z,12.70
2023-04-06T17:23:59.887Z,12.43
2023-04-06T17:26:45.414Z,11.65
2023-04-06T17:29:30.885Z,10.95
2023-04-06T17:32:16.700Z,10.73
2023-04-06T17:35:02.071Z,11.80
2023-04-06T17:37:47.956Z,10.77
2023-04-06T17:40:35.508Z,12.05
2023-04-06T17:43:20.787Z,10.68
2023-04-06T17:46:06.577Z,12.35
2023-04-06T17:48:53.182Z,11.65
2023-04-06T17:51:38.665Z,11.13
2023-04-06T17:54:23.980Z,12.25
2023-04-06T17:57:09.382Z,11.43
2023-04-06T17:59:54.911Z,12.65
2023-04-06T18:02:40.537Z,13.65
2023-04-06T18:05:28.647Z,12.27
2023-04-06T18:08:14.768Z,13.93
2023-04-06T18:11:01.232Z,13.40
2023-04-06T18:13:46.994Z,10.82
2023-04-06T18:19:27.102Z,14.02
2023-04-06T18:22:12.321Z,13.05
2023-04-06T18:24:59.307Z,14.48
2023-04-06T18:27:44.733Z,13.02
2023-04-06T18:30:30.222Z,13.55
2023-04-06T18:33:15.964Z,12.15
2023-04-06T18:36:01.124Z,14.98
2023-04-06T18:38:48.690Z,12.50
2023-04-06T18:41:34.922Z,15.85
2023-04-06T18:44:20.648Z,13.48
2023-04-06T18:47:06.552Z,13.70
2023-04-06T18:49:51.834Z,15.77
2023-04-06T18:52:37.341Z,14.48
2023-04-06T18:55:22.758Z,13.05
2023-04-06T18:58:07.948Z,12.50
2023-04-06T19:00:59.818Z,12.15
2023-04-06T19:03:45.549Z,12.27
2023-04-06T19:06:31.062Z,12.25
2023-04-06T19:09:16.428Z,12.05
2023-04-06T19:12:01.820Z,11.40
2023-04-06T19:14:51.516Z,11.70
2023-04-06T19:17:38.135Z,11.35
2023-04-06T19:20:23.803Z,12.32
2023-04-06T19:23:09.417Z,12.43
2023-04-06T19:25:56.273Z,12.05
2023-04-06T19:28:42.849Z,11.70
2023-04-06T19:31:28.474Z,12.00
2023-04-06T19:34:17.610Z,10.85
2023-04-06T19:37:02.898Z,11.57
2023-04-06T19:39:48.163Z,11.70
2023-04-06T19:42:34.572Z,9.98
2023-04-06T19:45:19.766Z,10.98
2023-04-06T19:48:05.497Z,11.07
2023-04-06T19:50:55.410Z,10.68
2023-04-06T19:53:40.934Z,10.80
2023-04-06T19:56:26.294Z,11.60
2023-04-06T19:59:12.019Z,10.60
2023-04-06T20:01:57.635Z,11.02
2023-04-06T20:04:43.093Z,10.30
2023-04-06T20:07:28.367Z,11.27
2023-04-06T20:10:14.281Z,11.10
2023-04-06T20:13:01.434Z,11.25
2023-04-06T20:15:46.663Z,11.95
2023-04-06T20:18:32.387Z,12.25
2023-04-06T20:21:17.437Z,11.40
2023-04-06T20:24:02.839Z,11.13
2023-04-06T20:26:48.225Z,13.32
2023-04-06T20:29:33.595Z,13.20
2023-04-06T20:32:22.068Z,13.02
2023-04-06T20:35:08.194Z,12.88
2023-04-06T20:37:53.561Z,12.27
2023-04-06T20:40:39.915Z,13.48
2023-04-06T20:43:28.357Z,17.25
2023-04-06T20:46:18.308Z,15.55
2023-04-06T20:49:03.922Z,16.98
2023-04-06T20:51:51.333Z,17.52
2023-04-06T20:54:36.452Z,17.08
2023-04-06T20:57:22.290Z,12.38
2023-04-06T21:00:09.565Z,11.70
2023-04-06T21:02:55.326Z,13.07
2023-04-06T21:05:41.358Z,12.50
2023-04-06T21:08:26.669Z,11.38
2023-04-06T21:11:11.897Z,9.40
2023-04-06T21:13:57.280Z,12.65
2023-04-06T21:16:43.090Z,15.07
2023-04-06T21:19:28.310Z,11.70
2023-04-06T21:22:13.838Z,14.95
2023-04-06T21:24:59.086Z,17.63
2023-04-06T21:27:44.708Z,16.92
2023-04-06T21:30:36.751Z,13.77
2023-04-06T21:33:22.108Z,17.30
2023-04-06T21:36:08.451Z,13.50
2023-04-06T21:38:54.090Z,15.52
2023-04-06T21:41:40.585Z,13.65
2023-04-06T21:44:26.001Z,13.52
2023-04-06T21:47:11.244Z,13.13
2023-04-06T21:49:56.655Z,11.57
2023-04-06T21:52:42.309Z,14.60
2023-04-06T21:55:28.037Z,13.95
2023-04-06T21:58:14.595Z,20.17
2023-04-06T22:01:01.413Z,16.65
2023-04-06T22:03:47.577Z,17.05
2023-04-06T22:06:33.280Z,15.38
2023-04-06T22:09:18.614Z,15.35
2023-04-06T22:12:04.182Z,9.10
2023-04-06T22:14:49.711Z,9.35
2023-04-06T22:17:35.234Z,12.10
2023-04-06T22:20:21.041Z,10.50
2023-04-06T22:23:06.081Z,11.02
2023-04-06T22:25:52.320Z,10.70
2023-04-06T22:28:37.939Z,9.32
2023-04-06T22:31:23.347Z,8.13
2023-04-06T22:34:08.786Z,14.88
2023-04-06T22:36:54.200Z,10.70
2023-04-06T22:39:39.757Z,9.90
2023-04-06T22:42:26.115Z,7.55
2023-04-06T22:45:11.549Z,6.38
2023-04-06T22:47:57.157Z,8.43
2023-04-06T22:50:42.670Z,12.10
2023-04-06T22:53:28.246Z,7.25
2023-04-06T22:56:13.737Z,7.25
2023-04-06T22:58:59.008Z,5.95
2023-04-06T23:01:44.691Z,10.43
2023-04-06T23:04:30.706Z,11.38
2023-04-06T23:07:16.530Z,8.70
2023-04-06T23:10:03.072Z,9.70
2023-04-06T23:12:48.580Z,9.18
2023-04-06T23:15:34.139Z,7.43
2023-04-06T23:18:19.570Z,8.02
2023-04-06T23:21:08.184Z,13.00
2023-04-06T23:23:53.666Z,19.80
2023-04-06T23:26:38.979Z,14.65
2023-04-06T23:29:24.619Z,13.70
2023-04-06T23:32:10.053Z,15.70
2023-04-06T23:34:55.550Z,24.20
2023-04-06T23:37:41.536Z,25.27
2023-04-06T23:40:26.890Z,25.80
2023-04-06T23:43:12.409Z,20.73
2023-04-06T23:45:57.827Z,20.75
2023-04-06T23:48:43.506Z,24.40
2023-04-06T23:51:28.829Z,25.73
2023-04-06T23:54:14.218Z,25.17
2023-04-06T23:56:59.651Z,24.67
2023-04-06T23:59:45.682Z,25.48
